createdAt,value
2024-02-02T00:01:23.236Z,0.59
2024-02-02T00:03:51.735Z,0.58
2024-02-02T00:06:20.167Z,0.53
2024-02-02T00:08:48.315Z,0.50
2024-02-02T00:11:19.422Z,0.46
2024-02-02T00:13:50.816Z,0.43
2024-02-02T00:16:18.857Z,0.41
2024-02-02T00:18:47.455Z,0.39
2024-02-02T00:21:16.468Z,0.39
2024-02-02T00:23:44.721Z,0.42
2024-02-02T00:26:12.825Z,0.43
2024-02-02T00:28:48.934Z,0.47
2024-02-02T00:31:22.829Z,0.50
2024-02-02T00:33:51.111Z,0.51
2024-02-02T00:36:19.233Z,0.52
2024-02-02T00:38:47.233Z,0.54
2024-02-02T00:41:17.279Z,0.55
2024-02-02T00:43:45.347Z,0.55
2024-02-02T00:46:13.461Z,0.53
2024-02-02T00:48:44.069Z,0.48
2024-02-02T00:51:12.358Z,0.43
2024-02-02T00:53:46.119Z,0.40
2024-02-02T00:56:14.874Z,0.38
2024-02-02T00:58:43.010Z,0.38
2024-02-02T01:02:37.990Z,0.36
2024-02-02T01:05:06.746Z,0.29
2024-02-02T01:07:35.162Z,0.24
2024-02-02T01:10:07.211Z,0.18
2024-02-02T01:12:36.653Z,0.12
2024-02-02T01:15:05.404Z,0.06
2024-02-02T01:17:33.717Z,0.01
2024-02-02T01:20:05.054Z,-0.03
2024-02-02T01:22:34.472Z,-0.07
2024-02-02T01:25:02.658Z,-0.11
2024-02-02T01:27:30.867Z,-0.14
2024-02-02T01:29:59.007Z,-0.17
2024-02-02T01:32:27.143Z,-0.19
2024-02-02T01:38:16.487Z,-0.23
2024-02-02T01:40:45.303Z,-0.29
2024-02-02T01:43:14.201Z,-0.35
2024-02-02T01:45:42.372Z,-0.40
2024-02-02T01:48:10.675Z,-0.45
2024-02-02T01:50:38.925Z,-0.50
2024-02-02T01:53:07.236Z,-0.54
2024-02-02T01:55:35.809Z,-0.58
2024-02-02T01:58:04.147Z,-0.64
2024-02-02T02:00:32.692Z,-0.69
2024-02-02T02:03:01.311Z,-0.74
2024-02-02T02:05:29.602Z,-0.78
2024-02-02T02:07:57.680Z,-0.81
2024-02-02T02:10:26.426Z,-0.85
2024-02-02T02:12:54.666Z,-0.88
2024-02-02T02:15:25.004Z,-0.90
2024-02-02T02:17:53.505Z,-0.91
2024-02-02T02:20:27.521Z,-0.93
2024-02-02T02:22:55.973Z,-0.95
2024-02-02T02:25:24.088Z,-0.94
2024-02-02T02:27:52.195Z,-0.91
2024-02-02T02:30:20.479Z,-0.88
2024-02-02T02:32:48.754Z,-0.83
2024-02-02T02:35:17.196Z,-0.77
2024-02-02T02:37:45.218Z,-0.69
2024-02-02T02:40:13.888Z,-0.62
2024-02-02T02:42:42.038Z,-0.56
2024-02-02T02:45:10.200Z,-0.48
2024-02-02T02:47:38.640Z,-0.42
2024-02-02T02:50:07.385Z,-0.35
2024-02-02T02:52:36.013Z,-0.28
2024-02-02T02:55:06.146Z,-0.22
2024-02-02T02:57:34.473Z,-0.16
2024-02-02T03:00:03.786Z,-0.11
2024-02-02T03:02:32.022Z,-0.05
2024-02-02T03:05:00.309Z,0.02
2024-02-02T03:07:28.417Z,0.08
2024-02-02T03:09:56.656Z,0.11
2024-02-02T03:12:24.841Z,0.16
2024-02-02T03:14:53.173Z,0.20
2024-02-02T03:17:21.290Z,0.23
2024-02-02T03:19:49.440Z,0.25
2024-02-02T03:22:17.434Z,0.28
2024-02-02T03:24:45.630Z,0.31
2024-02-02T03:27:13.765Z,0.34
2024-02-02T03:29:41.981Z,0.38
2024-02-02T03:32:10.134Z,0.39
2024-02-02T03:34:38.719Z,0.40
2024-02-02T03:37:07.195Z,0.41
2024-02-02T03:39:35.780Z,0.42
2024-02-02T03:42:05.647Z,0.43
2024-02-02T03:44:33.790Z,0.47
2024-02-02T03:47:02.136Z,0.49
2024-02-02T03:49:30.469Z,0.51
2024-02-02T03:51:58.666Z,0.52
2024-02-02T03:54:26.933Z,0.54
2024-02-02T03:56:55.796Z,0.56
2024-02-02T03:59:24.071Z,0.57
2024-02-02T04:01:52.561Z,0.58
2024-02-02T04:04:20.808Z,0.57
2024-02-02T04:06:49.023Z,0.56
2024-02-02T04:09:17.107Z,0.55
2024-02-02T04:11:45.309Z,0.54
2024-02-02T04:17:39.005Z,0.55
2024-02-02T04:20:07.966Z,0.53
2024-02-02T04:22:36.147Z,0.52
2024-02-02T04:25:04.614Z,0.51
2024-02-02T04:27:32.725Z,0.49
2024-02-02T04:30:00.930Z,0.46
2024-02-02T04:32:29.376Z,0.44
2024-02-02T04:34:57.476Z,0.41
2024-02-02T04:37:26.486Z,0.39
2024-02-02T04:39:54.741Z,0.38
2024-02-02T04:42:22.906Z,0.37
2024-02-02T04:44:51.177Z,0.37
2024-02-02T04:47:19.335Z,0.37
2024-02-02T04:49:47.615Z,0.37
2024-02-02T04:52:15.985Z,0.35
2024-02-02T04:54:44.194Z,0.34
2024-02-02T04:57:12.419Z,0.33
2024-02-02T04:59:40.710Z,0.31
2024-02-02T05:02:09.039Z,0.31
2024-02-02T05:04:37.436Z,0.30
2024-02-02T05:07:05.665Z,0.30
2024-02-02T05:09:33.820Z,0.30
2024-02-02T05:12:02.168Z,0.30
2024-02-02T05:14:30.383Z,0.29
2024-02-02T05:16:58.511Z,0.29
2024-02-02T05:19:27.048Z,0.28
2024-02-02T05:21:55.520Z,0.28
2024-02-02T05:24:38.284Z,0.28
2024-02-02T05:27:14.430Z,0.29
2024-02-02T05:29:45.324Z,0.32
2024-02-02T05:32:14.014Z,0.37
2024-02-02T05:34:42.883Z,0.42
2024-02-02T05:37:11.149Z,0.45
2024-02-02T05:39:39.311Z,0.50
2024-02-02T05:42:07.480Z,0.57
2024-02-02T05:44:35.633Z,0.63
2024-02-02T05:47:03.680Z,0.67
2024-02-02T05:49:31.791Z,0.71
2024-02-02T05:52:01.432Z,0.74
2024-02-02T05:54:29.814Z,0.76
2024-02-02T05:56:58.114Z,0.78
2024-02-02T05:59:29.116Z,0.82
2024-02-02T06:01:57.218Z,0.86
2024-02-02T06:04:25.438Z,0.88
2024-02-02T06:06:53.715Z,0.89
2024-02-02T06:09:22.038Z,0.92
2024-02-02T06:11:50.132Z,0.93
2024-02-02T06:14:18.414Z,0.92
2024-02-02T06:16:48.220Z,0.92
2024-02-02T06:19:16.470Z,0.92
2024-02-02T06:21:44.897Z,0.93
2024-02-02T06:24:13.029Z,0.95
2024-02-02T06:26:41.277Z,1.01
2024-02-02T06:29:34.108Z,1.01
2024-02-02T06:32:02.298Z,0.98
2024-02-02T06:34:30.956Z,0.98
2024-02-02T06:36:59.278Z,0.98
2024-02-02T06:39:27.350Z,0.96
2024-02-02T06:41:55.653Z,0.95
2024-02-02T06:44:24.678Z,0.95
2024-02-02T06:46:52.828Z,0.93
2024-02-02T06:49:21.236Z,0.92
2024-02-02T06:51:49.468Z,0.91
2024-02-02T06:54:43.007Z,0.90
2024-02-02T06:57:19.125Z,0.89
2024-02-02T06:59:59.069Z,0.88
2024-02-02T07:02:36.648Z,0.87
2024-02-02T07:05:05.211Z,0.87
2024-02-02T07:07:33.334Z,0.89
2024-02-02T07:10:02.325Z,0.92
2024-02-02T07:12:36.209Z,0.95
2024-02-02T07:15:05.735Z,1.00
2024-02-02T07:17:41.877Z,1.05
2024-02-02T07:20:31.748Z,1.10
2024-02-02T07:23:02.579Z,1.15
2024-02-02T07:25:38.593Z,1.21
2024-02-02T07:28:43.090Z,1.25
2024-02-02T07:31:22.562Z,1.31
2024-02-02T07:33:51.543Z,1.35
2024-02-02T07:36:31.755Z,1.38
2024-02-02T07:38:59.960Z,1.39
2024-02-02T07:41:30.280Z,1.40
2024-02-02T07:44:00.978Z,1.42
2024-02-02T07:46:30.142Z,1.46
2024-02-02T07:48:58.718Z,1.52
2024-02-02T07:51:46.186Z,1.57
2024-02-02T07:54:14.467Z,1.65
2024-02-02T07:56:42.541Z,1.72
2024-02-02T07:59:10.630Z,1.80
2024-02-02T08:01:39.179Z,1.85
2024-02-02T08:04:07.290Z,1.88
2024-02-02T08:06:35.650Z,1.92
2024-02-02T08:09:04.078Z,1.95
2024-02-02T08:11:36.932Z,2.01
2024-02-02T08:14:05.227Z,2.09
2024-02-02T08:16:33.382Z,2.17
2024-02-02T08:19:01.593Z,2.24
2024-02-02T08:21:30.024Z,2.30
2024-02-02T08:23:59.761Z,2.35
2024-02-02T08:26:28.279Z,2.38
2024-02-02T08:28:56.314Z,2.40
2024-02-02T08:31:25.069Z,2.41
2024-02-02T08:33:53.465Z,2.43
2024-02-02T08:39:47.241Z,2.51
2024-02-02T08:42:25.225Z,2.50
2024-02-02T08:44:54.995Z,2.51
2024-02-02T08:47:25.116Z,2.52
2024-02-02T08:49:57.563Z,2.52
2024-02-02T08:52:34.410Z,2.52
2024-02-02T08:55:08.056Z,2.52
2024-02-02T08:57:36.406Z,2.52
2024-02-02T09:00:17.321Z,2.53
2024-02-02T09:03:02.191Z,2.54
2024-02-02T09:05:55.145Z,2.57
2024-02-02T09:08:23.372Z,2.59
2024-02-02T09:11:00.837Z,2.62
2024-02-02T09:13:35.684Z,2.62
2024-02-02T09:16:05.344Z,2.64
2024-02-02T09:18:34.999Z,2.68
2024-02-02T09:21:05.265Z,2.71
2024-02-02T09:23:34.458Z,2.75
2024-02-02T09:26:17.728Z,2.79
2024-02-02T09:28:47.179Z,2.82
2024-02-02T09:31:25.017Z,2.85
2024-02-02T09:33:56.485Z,2.88
2024-02-02T09:36:27.902Z,2.91
2024-02-02T09:39:01.701Z,2.93
2024-02-02T09:41:35.869Z,2.94
2024-02-02T09:44:42.155Z,2.97
2024-02-02T09:47:27.906Z,2.97
2024-02-02T09:50:20.751Z,3.00
2024-02-02T09:53:07.731Z,3.02
2024-02-02T09:55:38.863Z,3.08
2024-02-02T09:58:36.762Z,3.15
2024-02-02T10:01:21.310Z,3.19
2024-02-02T10:04:22.445Z,3.19
2024-02-02T10:07:10.501Z,3.20
2024-02-02T10:10:03.331Z,3.25
2024-02-02T10:13:18.260Z,3.29
2024-02-02T10:16:06.208Z,3.30
2024-02-02T10:18:47.352Z,3.30
2024-02-02T10:21:34.789Z,3.32
2024-02-02T10:24:33.411Z,3.34
2024-02-02T10:27:41.739Z,3.33
2024-02-02T10:30:10.619Z,3.37
2024-02-02T10:33:07.499Z,3.42
2024-02-02T10:36:09.150Z,3.45
2024-02-02T10:39:12.101Z,3.46
2024-02-02T10:41:58.033Z,3.46
2024-02-02T10:44:54.273Z,3.44
2024-02-02T10:47:39.141Z,3.41
2024-02-02T10:50:26.785Z,3.38
2024-02-02T10:53:03.961Z,3.36
2024-02-02T10:55:38.166Z,3.33
2024-02-02T10:58:16.712Z,3.31
2024-02-02T11:00:56.534Z,3.29
2024-02-02T11:03:40.658Z,3.30
2024-02-02T11:06:33.029Z,3.31
2024-02-02T11:09:36.668Z,3.32
2024-02-02T11:12:43.460Z,3.34
2024-02-02T11:15:17.632Z,3.33
2024-02-02T11:18:03.231Z,3.29
2024-02-02T11:20:37.338Z,3.26
2024-02-02T11:23:27.577Z,3.27
2024-02-02T11:26:36.278Z,3.29
2024-02-02T11:29:45.679Z,3.26
2024-02-02T11:32:40.595Z,3.24
2024-02-02T11:35:21.805Z,3.22
2024-02-02T11:37:55.997Z,3.23
2024-02-02T11:40:26.618Z,3.23
2024-02-02T11:42:58.188Z,3.22
2024-02-02T11:45:34.912Z,3.22
2024-02-02T11:48:05.902Z,3.25
2024-02-02T11:50:53.741Z,3.27
2024-02-02T11:53:37.280Z,3.26
2024-02-02T11:56:11.578Z,3.26
2024-02-02T11:58:44.548Z,3.25
2024-02-02T12:01:18.320Z,3.23
2024-02-02T12:04:10.743Z,3.16
2024-02-02T12:07:16.630Z,3.04
2024-02-02T12:09:49.643Z,2.94
2024-02-02T12:12:33.123Z,2.85
2024-02-02T12:15:04.483Z,2.73
2024-02-02T12:17:32.873Z,2.65
2024-02-02T12:20:33.432Z,2.55
2024-02-02T12:23:02.038Z,2.43
2024-02-02T12:25:30.874Z,2.32
2024-02-02T12:27:59.009Z,2.24
2024-02-02T12:30:27.389Z,2.19
2024-02-02T12:33:00.193Z,2.14
2024-02-02T12:35:32.167Z,2.10
2024-02-02T12:38:05.354Z,2.05
2024-02-02T12:40:34.402Z,2.02
2024-02-02T12:43:03.599Z,2.02
2024-02-02T12:45:37.436Z,2.01
2024-02-02T12:48:11.921Z,2.01
2024-02-02T12:50:40.187Z,2.01
2024-02-02T12:53:09.115Z,2.02
2024-02-02T12:55:37.536Z,2.05
2024-02-02T12:58:05.864Z,2.08
2024-02-02T13:00:34.231Z,2.11
2024-02-02T13:03:06.316Z,2.15
2024-02-02T13:05:38.778Z,2.21
2024-02-02T13:08:09.624Z,2.32
2024-02-02T13:10:37.893Z,2.39
2024-02-02T13:13:22.344Z,2.44
2024-02-02T13:15:50.642Z,2.49
2024-02-02T13:18:24.030Z,2.49
2024-02-02T13:20:55.580Z,2.50
2024-02-02T13:23:26.392Z,2.50
2024-02-02T13:26:02.199Z,2.51
2024-02-02T13:28:42.610Z,2.53
2024-02-02T13:31:14.591Z,2.53
2024-02-02T13:34:06.069Z,2.52
2024-02-02T13:36:40.777Z,2.51
2024-02-02T13:39:19.737Z,2.48
2024-02-02T13:41:49.166Z,2.46
2024-02-02T13:44:24.056Z,2.43
2024-02-02T13:46:53.938Z,2.39
2024-02-02T13:50:20.144Z,2.35
2024-02-02T13:52:41.185Z,2.31
2024-02-02T13:55:09.572Z,2.24
2024-02-02T13:57:38.604Z,2.20
2024-02-02T14:00:08.820Z,2.16
2024-02-02T14:02:36.945Z,2.14
2024-02-02T14:05:08.968Z,2.10
2024-02-02T14:07:39.514Z,2.08
2024-02-02T14:10:10.110Z,2.07
2024-02-02T14:12:44.910Z,2.06
2024-02-02T14:15:15.085Z,2.03
2024-02-02T14:17:43.637Z,2.01
2024-02-02T14:20:20.211Z,1.99
2024-02-02T14:22:49.509Z,1.99
2024-02-02T14:25:32.712Z,1.97
2024-02-02T14:28:00.813Z,1.95
2024-02-02T14:30:29.652Z,1.94
2024-02-02T14:33:09.123Z,1.91
2024-02-02T14:35:47.740Z,1.89
2024-02-02T14:38:18.281Z,1.86
2024-02-02T14:40:49.609Z,1.82
2024-02-02T14:43:17.847Z,1.78
2024-02-02T14:45:51.118Z,1.75
2024-02-02T14:48:20.760Z,1.72
2024-02-02T14:50:57.936Z,1.69
2024-02-02T14:53:28.084Z,1.66
2024-02-02T14:55:57.286Z,1.64
2024-02-02T14:58:26.458Z,1.62
2024-02-02T15:00:55.694Z,1.60
2024-02-02T15:03:25.182Z,1.58
2024-02-02T15:06:00.507Z,1.57
2024-02-02T15:08:28.883Z,1.55
2024-02-02T15:11:00.586Z,1.54
2024-02-02T15:13:29.023Z,1.53
2024-02-02T15:15:57.163Z,1.50
2024-02-02T15:18:33.172Z,1.48
2024-02-02T15:21:05.551Z,1.45
2024-02-02T15:23:36.940Z,1.43
2024-02-02T15:26:05.125Z,1.43
2024-02-02T15:28:39.792Z,1.41
2024-02-02T15:31:08.601Z,1.41
2024-02-02T15:33:38.114Z,1.39
2024-02-02T15:36:06.463Z,1.38
2024-02-02T15:38:34.895Z,1.37
2024-02-02T15:41:10.285Z,1.37
2024-02-02T15:43:41.294Z,1.37
2024-02-02T15:46:25.309Z,1.38
2024-02-02T15:49:14.446Z,1.41
2024-02-02T15:51:43.301Z,1.43
2024-02-02T15:54:11.491Z,1.45
2024-02-02T15:56:40.558Z,1.49
2024-02-02T15:59:08.791Z,1.53
2024-02-02T16:01:37.409Z,1.57
2024-02-02T16:04:08.792Z,1.62
2024-02-02T16:06:36.928Z,1.67
2024-02-02T16:09:07.337Z,1.72
2024-02-02T16:11:36.974Z,1.76
2024-02-02T16:14:05.060Z,1.79
2024-02-02T16:16:33.193Z,1.82
2024-02-02T16:19:01.414Z,1.86
2024-02-02T16:21:29.639Z,1.88
2024-02-02T16:23:57.879Z,1.91
2024-02-02T16:26:26.078Z,1.94
2024-02-02T16:28:54.211Z,1.97
2024-02-02T16:31:27.339Z,2.01
2024-02-02T16:33:55.646Z,2.02
2024-02-02T16:36:29.156Z,2.01
2024-02-02T16:39:00.445Z,1.99
2024-02-02T16:41:37.891Z,2.02
2024-02-02T16:44:07.372Z,2.09
2024-02-02T16:46:43.301Z,2.13
2024-02-02T16:49:18.829Z,2.14
2024-02-02T16:51:51.853Z,2.15
2024-02-02T16:54:51.709Z,2.18
2024-02-02T16:57:30.634Z,2.12
2024-02-02T16:59:59.064Z,2.07
2024-02-02T17:05:56.193Z,1.99
2024-02-02T17:08:27.204Z,1.92
2024-02-02T17:10:59.766Z,1.88
2024-02-02T17:13:27.880Z,1.85
2024-02-02T17:15:56.897Z,1.82
2024-02-02T17:18:25.241Z,1.79
2024-02-02T17:21:11.110Z,1.78
2024-02-02T17:23:40.411Z,1.75
2024-02-02T17:26:18.418Z,1.72
2024-02-02T17:28:50.444Z,1.68
2024-02-02T17:31:20.657Z,1.64
2024-02-02T17:33:48.710Z,1.61
2024-02-02T17:36:18.101Z,1.58
2024-02-02T17:38:53.773Z,1.56
2024-02-02T17:41:25.897Z,1.54
2024-02-02T17:43:57.917Z,1.51
2024-02-02T17:46:28.933Z,1.50
2024-02-02T17:48:59.521Z,1.48
2024-02-02T17:51:30.541Z,1.47
2024-02-02T17:54:01.922Z,1.44
2024-02-02T17:56:35.258Z,1.43
2024-02-02T17:59:06.273Z,1.41
2024-02-02T18:01:37.592Z,1.39
2024-02-02T18:04:08.664Z,1.37
2024-02-02T18:06:40.136Z,1.35
2024-02-02T18:09:10.399Z,1.34
2024-02-02T18:11:44.296Z,1.32
2024-02-02T18:14:15.171Z,1.31
2024-02-02T18:16:43.398Z,1.30
2024-02-02T18:19:14.153Z,1.29
2024-02-02T18:21:42.534Z,1.28
2024-02-02T18:24:18.742Z,1.27
2024-02-02T18:26:46.861Z,1.25
2024-02-02T18:29:18.066Z,1.24
2024-02-02T18:31:47.084Z,1.23
2024-02-02T18:34:15.276Z,1.21
2024-02-02T18:36:50.679Z,1.20
2024-02-02T18:39:38.488Z,1.21
2024-02-02T18:42:10.822Z,1.17
2024-02-02T18:44:39.335Z,1.14
2024-02-02T18:47:08.709Z,1.13
2024-02-02T18:49:38.452Z,1.11
2024-02-02T18:52:07.342Z,1.09
2024-02-02T18:54:37.947Z,1.07
2024-02-02T18:57:07.070Z,1.04
2024-02-02T18:59:38.452Z,1.00
2024-02-02T19:02:06.677Z,0.96
2024-02-02T19:04:35.740Z,0.92
2024-02-02T19:07:06.267Z,0.90
2024-02-02T19:09:34.774Z,0.90
2024-02-02T19:12:03.270Z,0.90
2024-02-02T19:14:31.280Z,0.91
2024-02-02T19:17:00.092Z,0.92
2024-02-02T19:19:28.396Z,0.92
2024-02-02T19:21:56.590Z,0.91
2024-02-02T19:24:27.187Z,0.92
2024-02-02T19:26:56.229Z,0.92
2024-02-02T19:29:24.350Z,0.91
2024-02-02T19:31:52.359Z,0.87
2024-02-02T19:34:20.558Z,0.84
2024-02-02T19:36:48.872Z,0.79
2024-02-02T19:39:17.261Z,0.79
2024-02-02T19:41:45.388Z,0.78
2024-02-02T19:44:13.583Z,0.77
2024-02-02T19:46:44.502Z,0.75
2024-02-02T19:49:12.755Z,0.70
2024-02-02T19:51:41.115Z,0.68
2024-02-02T19:54:10.021Z,0.70
2024-02-02T19:56:38.132Z,0.66
2024-02-02T19:59:06.321Z,0.63
2024-02-02T20:01:38.768Z,0.60
2024-02-02T20:04:07.728Z,0.55
2024-02-02T20:06:38.556Z,0.46
2024-02-02T20:09:07.579Z,0.38
2024-02-02T20:11:35.817Z,0.30
2024-02-02T20:14:03.904Z,0.20
2024-02-02T20:16:31.993Z,0.15
2024-02-02T20:19:00.180Z,0.13
2024-02-02T20:21:29.548Z,0.14
2024-02-02T20:24:00.136Z,0.12
2024-02-02T20:26:28.283Z,0.07
2024-02-02T20:28:56.457Z,-0.05
2024-02-02T20:31:27.733Z,-0.15
2024-02-02T20:33:57.896Z,-0.22
2024-02-02T20:36:31.745Z,-0.31
2024-02-02T20:39:00.062Z,-0.40
2024-02-02T20:41:28.389Z,-0.47
2024-02-02T20:43:58.610Z,-0.54
2024-02-02T20:46:27.143Z,-0.61
2024-02-02T20:48:55.517Z,-0.69
2024-02-02T20:51:23.729Z,-0.75
2024-02-02T20:53:52.277Z,-0.81
2024-02-02T20:56:20.396Z,-0.86
2024-02-02T20:58:50.661Z,-0.91
2024-02-02T21:01:18.758Z,-0.97
2024-02-02T21:03:47.006Z,-1.02
2024-02-02T21:09:28.496Z,-1.12
2024-02-02T21:11:56.776Z,-1.19
2024-02-02T21:14:24.957Z,-1.22
2024-02-02T21:16:53.175Z,-1.26
2024-02-02T21:19:21.397Z,-1.31
2024-02-02T21:21:50.134Z,-1.37
2024-02-02T21:24:18.714Z,-1.42
2024-02-02T21:26:48.298Z,-1.45
2024-02-02T21:29:21.530Z,-1.49
2024-02-02T21:31:50.274Z,-1.54
2024-02-02T21:34:26.104Z,-1.58
2024-02-02T21:36:54.329Z,-1.61
2024-02-02T21:39:25.052Z,-1.64
2024-02-02T21:41:53.727Z,-1.66
2024-02-02T21:44:26.979Z,-1.69
2024-02-02T21:46:55.089Z,-1.73
2024-02-02T21:49:30.918Z,-1.75
2024-02-02T21:52:06.363Z,-1.77
2024-02-02T21:54:41.148Z,-1.80
2024-02-02T21:57:10.575Z,-1.82
2024-02-02T21:59:43.704Z,-1.85
2024-02-02T22:02:18.052Z,-1.88
2024-02-02T22:04:53.895Z,-1.90
2024-02-02T22:07:31.167Z,-1.94
2024-02-02T22:10:02.024Z,-1.98
2024-02-02T22:12:32.719Z,-2.01
2024-02-02T22:15:11.173Z,-2.04
2024-02-02T22:17:42.180Z,-2.07
2024-02-02T22:20:14.582Z,-2.08
2024-02-02T22:22:58.075Z,-2.07
2024-02-02T22:25:26.281Z,-2.06
2024-02-02T22:27:59.960Z,-2.05
2024-02-02T22:30:34.023Z,-2.02
2024-02-02T22:33:03.848Z,-1.97
2024-02-02T22:35:40.800Z,-1.90
2024-02-02T22:38:09.023Z,-1.83
2024-02-02T22:40:37.247Z,-1.79
2024-02-02T22:43:09.900Z,-1.74
2024-02-02T22:45:38.124Z,-1.68
2024-02-02T22:48:06.587Z,-1.65
2024-02-02T22:50:39.600Z,-1.59
2024-02-02T22:53:18.148Z,-1.49
2024-02-02T22:55:48.660Z,-1.45
2024-02-02T22:58:17.352Z,-1.43
2024-02-02T23:00:49.419Z,-1.42
2024-02-02T23:03:20.305Z,-1.42
2024-02-02T23:05:54.757Z,-1.36
2024-02-02T23:08:25.874Z,-1.28
2024-02-02T23:10:59.225Z,-1.23
2024-02-02T23:13:29.178Z,-1.19
2024-02-02T23:16:00.734Z,-1.15
2024-02-02T23:18:31.744Z,-1.13
2024-02-02T23:21:01.139Z,-1.10
2024-02-02T23:23:30.343Z,-1.06
2024-02-02T23:26:06.155Z,-1.02
2024-02-02T23:28:40.061Z,-0.97
2024-02-02T23:31:12.240Z,-0.95
2024-02-02T23:33:42.293Z,-0.93
2024-02-02T23:36:14.207Z,-0.93
2024-02-02T23:38:45.176Z,-0.92
2024-02-02T23:41:17.050Z,-0.92
2024-02-02T23:43:46.097Z,-0.94
2024-02-02T23:46:18.984Z,-0.96
2024-02-02T23:48:50.697Z,-0.97
2024-02-02T23:51:44.288Z,-1.00
2024-02-02T23:54:13.947Z,-1.02
2024-02-02T23:56:42.522Z,-1.05
2024-02-02T23:59:13.406Z,-1.07
